sensor_id;sensor_type;location;lat;lon;timestamp;P1;durP1;ratioP1;P2;durP2;ratioP2
11935;SDS011;6027;48.576;9.180;2023-07-09T00:01:58;9.90;;;9.20;;
11935;SDS011;6027;48.576;9.180;2023-07-09T00:04:24;10.88;;;9.98;;
11935;SDS011;6027;48.576;9.180;2023-07-09T00:06:50;10.70;;;9.90;;
11935;SDS011;6027;48.576;9.180;2023-07-09T00:09:20;10.00;;;9.20;;
11935;SDS011;6027;48.576;9.180;2023-07-09T00:11:46;10.07;;;9.18;;
11935;SDS011;6027;48.576;9.180;2023-07-09T00:14:13;10.05;;;9.25;;
11935;SDS011;6027;48.576;9.180;2023-07-09T00:16:40;11.07;;;10.27;;
11935;SDS011;6027;48.576;9.180;2023-07-09T00:19:13;10.13;;;9.15;;
11935;SDS011;6027;48.576;9.180;2023-07-09T00:21:44;10.20;;;9.30;;
11935;SDS011;6027;48.576;9.180;2023-07-09T00:24:11;9.88;;;9.02;;
11935;SDS011;6027;48.576;9.180;2023-07-09T00:26:37;10.57;;;9.63;;
11935;SDS011;6027;48.576;9.180;2023-07-09T00:29:08;9.52;;;8.93;;
11935;SDS011;6027;48.576;9.180;2023-07-09T00:31:35;10.77;;;10.07;;
11935;SDS011;6027;48.576;9.180;2023-07-09T00:34:04;8.68;;;7.97;;
11935;SDS011;6027;48.576;9.180;2023-07-09T00:36:30;8.98;;;8.38;;
11935;SDS011;6027;48.576;9.180;2023-07-09T00:38:56;9.75;;;9.07;;
11935;SDS011;6027;48.576;9.180;2023-07-09T00:41:31;10.32;;;9.48;;
11935;SDS011;6027;48.576;9.180;2023-07-09T00:43:58;10.20;;;9.40;;
11935;SDS011;6027;48.576;9.180;2023-07-09T00:49:15;9.02;;;8.32;;
11935;SDS011;6027;48.576;9.180;2023-07-09T00:51:51;9.52;;;8.77;;
11935;SDS011;6027;48.576;9.180;2023-07-09T00:54:25;10.32;;;9.48;;
11935;SDS011;6027;48.576;9.180;2023-07-09T00:57:04;9.68;;;8.88;;
11935;SDS011;6027;48.576;9.180;2023-07-09T00:59:36;11.07;;;10.27;;
11935;SDS011;6027;48.576;9.180;2023-07-09T01:02:02;9.23;;;8.63;;
11935;SDS011;6027;48.576;9.180;2023-07-09T01:04:29;10.77;;;9.95;;
11935;SDS011;6027;48.576;9.180;2023-07-09T01:06:55;10.75;;;9.95;;
11935;SDS011;6027;48.576;9.180;2023-07-09T01:09:22;11.32;;;10.43;;
11935;SDS011;6027;48.576;9.180;2023-07-09T01:11:48;9.88;;;9.15;;
11935;SDS011;6027;48.576;9.180;2023-07-09T01:14:15;11.80;;;10.65;;
11935;SDS011;6027;48.576;9.180;2023-07-09T01:16:47;11.27;;;10.38;;
11935;SDS011;6027;48.576;9.180;2023-07-09T01:19:22;10.73;;;9.68;;
11935;SDS011;6027;48.576;9.180;2023-07-09T01:21:59;11.02;;;10.23;;
11935;SDS011;6027;48.576;9.180;2023-07-09T01:27:13;10.02;;;9.23;;
11935;SDS011;6027;48.576;9.180;2023-07-09T01:29:39;11.13;;;10.25;;
11935;SDS011;6027;48.576;9.180;2023-07-09T01:32:06;11.48;;;10.60;;
11935;SDS011;6027;48.576;9.180;2023-07-09T01:34:32;12.20;;;11.07;;
11935;SDS011;6027;48.576;9.180;2023-07-09T01:36:58;10.40;;;9.55;;
11935;SDS011;6027;48.576;9.180;2023-07-09T01:39:25;10.68;;;9.68;;
11935;SDS011;6027;48.576;9.180;2023-07-09T01:41:53;11.10;;;10.23;;
11935;SDS011;6027;48.576;9.180;2023-07-09T01:46:47;10.63;;;9.70;;
11935;SDS011;6027;48.576;9.180;2023-07-09T01:49:13;11.27;;;10.48;;
11935;SDS011;6027;48.576;9.180;2023-07-09T01:51:40;11.40;;;10.52;;
11935;SDS011;6027;48.576;9.180;2023-07-09T01:54:05;12.05;;;11.25;;
11935;SDS011;6027;48.576;9.180;2023-07-09T01:56:31;11.27;;;10.48;;
11935;SDS011;6027;48.576;9.180;2023-07-09T01:58:56;11.20;;;10.30;;
11935;SDS011;6027;48.576;9.180;2023-07-09T02:01:28;11.77;;;10.90;;
11935;SDS011;6027;48.576;9.180;2023-07-09T02:03:54;11.55;;;10.65;;
11935;SDS011;6027;48.576;9.180;2023-07-09T02:06:19;10.95;;;10.15;;
11935;SDS011;6027;48.576;9.180;2023-07-09T02:08:45;11.05;;;10.15;;
11935;SDS011;6027;48.576;9.180;2023-07-09T02:11:11;11.93;;;11.02;;
11935;SDS011;6027;48.576;9.180;2023-07-09T02:13:36;12.68;;;11.68;;
11935;SDS011;6027;48.576;9.180;2023-07-09T02:16:02;12.02;;;11.00;;
11935;SDS011;6027;48.576;9.180;2023-07-09T02:18:28;10.82;;;10.02;;
11935;SDS011;6027;48.576;9.180;2023-07-09T02:20:54;11.05;;;9.98;;
11935;SDS011;6027;48.576;9.180;2023-07-09T02:23:19;10.38;;;9.68;;
11935;SDS011;6027;48.576;9.180;2023-07-09T02:25:45;11.73;;;10.82;;
11935;SDS011;6027;48.576;9.180;2023-07-09T02:28:10;11.23;;;10.40;;
11935;SDS011;6027;48.576;9.180;2023-07-09T02:30:36;12.73;;;11.75;;
11935;SDS011;6027;48.576;9.180;2023-07-09T02:33:01;11.20;;;10.30;;
11935;SDS011;6027;48.576;9.180;2023-07-09T02:35:27;11.27;;;10.52;;
11935;SDS011;6027;48.576;9.180;2023-07-09T02:37:52;11.93;;;10.93;;
11935;SDS011;6027;48.576;9.180;2023-07-09T02:40:18;12.68;;;11.57;;
11935;SDS011;6027;48.576;9.180;2023-07-09T02:42:43;10.68;;;9.88;;
11935;SDS011;6027;48.576;9.180;2023-07-09T02:45:09;11.98;;;11.07;;
11935;SDS011;6027;48.576;9.180;2023-07-09T02:47:35;12.52;;;11.60;;
11935;SDS011;6027;48.576;9.180;2023-07-09T02:50:01;10.98;;;10.18;;
11935;SDS011;6027;48.576;9.180;2023-07-09T02:52:26;12.18;;;11.32;;
11935;SDS011;6027;48.576;9.180;2023-07-09T02:54:52;13.15;;;11.88;;
11935;SDS011;6027;48.576;9.180;2023-07-09T02:57:17;12.73;;;11.48;;
11935;SDS011;6027;48.576;9.180;2023-07-09T02:59:43;12.55;;;11.57;;
11935;SDS011;6027;48.576;9.180;2023-07-09T03:02:10;12.48;;;11.57;;
11935;SDS011;6027;48.576;9.180;2023-07-09T03:04:35;11.15;;;10.27;;
11935;SDS011;6027;48.576;9.180;2023-07-09T03:07:01;11.45;;;10.65;;
11935;SDS011;6027;48.576;9.180;2023-07-09T03:09:27;11.27;;;10.48;;
11935;SDS011;6027;48.576;9.180;2023-07-09T03:11:53;11.55;;;10.75;;
11935;SDS011;6027;48.576;9.180;2023-07-09T03:14:18;12.85;;;11.95;;
11935;SDS011;6027;48.576;9.180;2023-07-09T03:17:03;11.32;;;10.52;;
11935;SDS011;6027;48.576;9.180;2023-07-09T03:19:29;13.57;;;12.43;;
11935;SDS011;6027;48.576;9.180;2023-07-09T03:21:54;12.25;;;11.27;;
11935;SDS011;6027;48.576;9.180;2023-07-09T03:24:20;12.70;;;11.80;;
11935;SDS011;6027;48.576;9.180;2023-07-09T03:26:46;11.80;;;10.80;;
11935;SDS011;6027;48.576;9.180;2023-07-09T03:29:12;13.38;;;12.45;;
11935;SDS011;6027;48.576;9.180;2023-07-09T03:31:38;12.70;;;11.65;;
11935;SDS011;6027;48.576;9.180;2023-07-09T03:34:04;12.65;;;11.65;;
11935;SDS011;6027;48.576;9.180;2023-07-09T03:36:29;11.02;;;10.20;;
11935;SDS011;6027;48.576;9.180;2023-07-09T03:38:55;14.15;;;13.05;;
11935;SDS011;6027;48.576;9.180;2023-07-09T03:41:20;12.25;;;11.43;;
11935;SDS011;6027;48.576;9.180;2023-07-09T03:43:46;12.35;;;11.55;;
11935;SDS011;6027;48.576;9.180;2023-07-09T03:46:11;12.50;;;11.52;;
11935;SDS011;6027;48.576;9.180;2023-07-09T03:48:37;11.85;;;10.93;;
11935;SDS011;6027;48.576;9.180;2023-07-09T03:51:03;12.05;;;11.05;;
11935;SDS011;6027;48.576;9.180;2023-07-09T03:53:29;11.60;;;10.70;;
11935;SDS011;6027;48.576;9.180;2023-07-09T03:55:55;11.77;;;10.88;;
11935;SDS011;6027;48.576;9.180;2023-07-09T03:58:21;11.70;;;10.82;;
11935;SDS011;6027;48.576;9.180;2023-07-09T04:00:48;13.27;;;11.95;;
11935;SDS011;6027;48.576;9.180;2023-07-09T04:03:14;12.93;;;11.82;;
11935;SDS011;6027;48.576;9.180;2023-07-09T04:05:39;13.35;;;12.15;;
11935;SDS011;6027;48.576;9.180;2023-07-09T04:08:05;12.88;;;11.88;;
11935;SDS011;6027;48.576;9.180;2023-07-09T04:10:30;13.60;;;12.50;;
11935;SDS011;6027;48.576;9.180;2023-07-09T04:12:56;12.05;;;11.05;;
11935;SDS011;6027;48.576;9.180;2023-07-09T04:15:22;12.05;;;11.05;;
11935;SDS011;6027;48.576;9.180;2023-07-09T04:17:47;12.52;;;11.45;;
11935;SDS011;6027;48.576;9.180;2023-07-09T04:20:13;13.38;;;12.30;;
11935;SDS011;6027;48.576;9.180;2023-07-09T04:22:40;15.02;;;13.82;;
11935;SDS011;6027;48.576;9.180;2023-07-09T04:25:06;12.18;;;11.25;;
11935;SDS011;6027;48.576;9.180;2023-07-09T04:27:35;12.38;;;11.48;;
11935;SDS011;6027;48.576;9.180;2023-07-09T04:30:00;11.98;;;11.05;;
11935;SDS011;6027;48.576;9.180;2023-07-09T04:32:26;14.30;;;13.00;;
11935;SDS011;6027;48.576;9.180;2023-07-09T04:34:51;12.18;;;11.27;;
11935;SDS011;6027;48.576;9.180;2023-07-09T04:37:17;13.90;;;12.73;;
11935;SDS011;6027;48.576;9.180;2023-07-09T04:39:42;11.93;;;11.02;;
11935;SDS011;6027;48.576;9.180;2023-07-09T04:42:12;11.68;;;10.77;;
11935;SDS011;6027;48.576;9.180;2023-07-09T04:44:39;11.85;;;10.88;;
11935;SDS011;6027;48.576;9.180;2023-07-09T04:47:05;15.18;;;13.95;;
11935;SDS011;6027;48.576;9.180;2023-07-09T04:49:31;13.43;;;12.43;;
11935;SDS011;6027;48.576;9.180;2023-07-09T04:51:57;13.93;;;12.90;;
11935;SDS011;6027;48.576;9.180;2023-07-09T04:54:24;14.90;;;13.75;;
11935;SDS011;6027;48.576;9.180;2023-07-09T04:56:50;14.20;;;13.10;;
11935;SDS011;6027;48.576;9.180;2023-07-09T04:59:16;12.88;;;11.88;;
11935;SDS011;6027;48.576;9.180;2023-07-09T05:01:41;11.55;;;10.60;;
11935;SDS011;6027;48.576;9.180;2023-07-09T05:04:07;13.23;;;12.23;;
11935;SDS011;6027;48.576;9.180;2023-07-09T05:06:33;13.70;;;12.73;;
11935;SDS011;6027;48.576;9.180;2023-07-09T05:11:28;15.07;;;14.05;;
11935;SDS011;6027;48.576;9.180;2023-07-09T05:13:54;14.95;;;13.75;;
11935;SDS011;6027;48.576;9.180;2023-07-09T05:16:20;14.48;;;13.48;;
11935;SDS011;6027;48.576;9.180;2023-07-09T05:18:46;11.88;;;10.90;;
11935;SDS011;6027;48.576;9.180;2023-07-09T05:21:12;14.98;;;13.85;;
11935;SDS011;6027;48.576;9.180;2023-07-09T05:23:37;13.15;;;12.25;;
11935;SDS011;6027;48.576;9.180;2023-07-09T05:26:03;14.25;;;13.25;;
11935;SDS011;6027;48.576;9.180;2023-07-09T05:28:30;14.63;;;13.52;;
11935;SDS011;6027;48.576;9.180;2023-07-09T05:30:57;15.75;;;14.48;;
11935;SDS011;6027;48.576;9.180;2023-07-09T05:33:23;14.98;;;13.77;;
11935;SDS011;6027;48.576;9.180;2023-07-09T05:35:49;12.95;;;12.05;;
11935;SDS011;6027;48.576;9.180;2023-07-09T05:38:14;15.43;;;14.25;;
11935;SDS011;6027;48.576;9.180;2023-07-09T05:40:41;14.57;;;13.07;;
11935;SDS011;6027;48.576;9.180;2023-07-09T05:43:10;12.65;;;11.75;;
11935;SDS011;6027;48.576;9.180;2023-07-09T05:45:38;13.88;;;12.88;;
11935;SDS011;6027;48.576;9.180;2023-07-09T05:48:04;14.25;;;12.90;;
11935;SDS011;6027;48.576;9.180;2023-07-09T05:50:32;13.88;;;12.70;;
11935;SDS011;6027;48.576;9.180;2023-07-09T05:52:58;14.80;;;13.82;;
11935;SDS011;6027;48.576;9.180;2023-07-09T05:55:24;14.00;;;13.00;;
11935;SDS011;6027;48.576;9.180;2023-07-09T05:57:50;14.10;;;12.93;;
11935;SDS011;6027;48.576;9.180;2023-07-09T06:00:15;13.35;;;12.45;;
11935;SDS011;6027;48.576;9.180;2023-07-09T06:06:05;14.90;;;13.63;;
11935;SDS011;6027;48.576;9.180;2023-07-09T06:08:31;13.32;;;12.23;;
11935;SDS011;6027;48.576;9.180;2023-07-09T06:11:03;14.23;;;13.05;;
11935;SDS011;6027;48.576;9.180;2023-07-09T06:13:32;14.35;;;13.35;;
11935;SDS011;6027;48.576;9.180;2023-07-09T06:15:58;14.75;;;13.65;;
11935;SDS011;6027;48.576;9.180;2023-07-09T06:18:28;15.27;;;14.18;;
11935;SDS011;6027;48.576;9.180;2023-07-09T06:20:59;14.50;;;13.27;;
11935;SDS011;6027;48.576;9.180;2023-07-09T06:23:47;13.65;;;12.65;;
11935;SDS011;6027;48.576;9.180;2023-07-09T06:26:13;16.25;;;15.05;;
11935;SDS011;6027;48.576;9.180;2023-07-09T06:28:42;15.05;;;13.95;;
11935;SDS011;6027;48.576;9.180;2023-07-09T06:31:08;13.55;;;12.55;;
11935;SDS011;6027;48.576;9.180;2023-07-09T06:33:53;15.75;;;14.60;;
11935;SDS011;6027;48.576;9.180;2023-07-09T06:36:26;14.80;;;13.70;;
11935;SDS011;6027;48.576;9.180;2023-07-09T06:38:52;14.50;;;13.30;;
11935;SDS011;6027;48.576;9.180;2023-07-09T06:41:18;15.55;;;14.07;;
11935;SDS011;6027;48.576;9.180;2023-07-09T06:47:16;13.40;;;12.30;;
11935;SDS011;6027;48.576;9.180;2023-07-09T06:49:54;15.32;;;14.32;;
11935;SDS011;6027;48.576;9.180;2023-07-09T06:52:21;14.93;;;13.93;;
11935;SDS011;6027;48.576;9.180;2023-07-09T06:54:50;14.32;;;13.23;;
11935;SDS011;6027;48.576;9.180;2023-07-09T06:57:16;13.35;;;12.45;;
11935;SDS011;6027;48.576;9.180;2023-07-09T07:00:14;16.08;;;14.65;;
11935;SDS011;6027;48.576;9.180;2023-07-09T07:02:51;14.23;;;13.05;;
11935;SDS011;6027;48.576;9.180;2023-07-09T07:05:48;15.45;;;14.40;;
11935;SDS011;6027;48.576;9.180;2023-07-09T07:08:42;14.80;;;13.75;;
11935;SDS011;6027;48.576;9.180;2023-07-09T07:11:15;14.02;;;13.00;;
11935;SDS011;6027;48.576;9.180;2023-07-09T07:13:41;13.82;;;12.82;;
11935;SDS011;6027;48.576;9.180;2023-07-09T07:16:11;14.52;;;13.40;;
11935;SDS011;6027;48.576;9.180;2023-07-09T07:18:37;13.40;;;12.50;;
11935;SDS011;6027;48.576;9.180;2023-07-09T07:21:04;13.15;;;12.15;;
11935;SDS011;6027;48.576;9.180;2023-07-09T07:23:33;13.20;;;12.30;;
11935;SDS011;6027;48.576;9.180;2023-07-09T07:26:02;14.70;;;13.55;;
11935;SDS011;6027;48.576;9.180;2023-07-09T07:28:29;14.52;;;13.52;;
11935;SDS011;6027;48.576;9.180;2023-07-09T07:30:59;13.45;;;12.55;;
11935;SDS011;6027;48.576;9.180;2023-07-09T07:33:30;12.63;;;11.63;;
11935;SDS011;6027;48.576;9.180;2023-07-09T07:35:56;14.77;;;13.68;;
11935;SDS011;6027;48.576;9.180;2023-07-09T07:38:22;12.52;;;11.38;;
11935;SDS011;6027;48.576;9.180;2023-07-09T07:40:51;12.45;;;11.63;;
11935;SDS011;6027;48.576;9.180;2023-07-09T07:43:16;10.68;;;9.98;;
11935;SDS011;6027;48.576;9.180;2023-07-09T07:45:47;12.40;;;11.30;;
11935;SDS011;6027;48.576;9.180;2023-07-09T07:48:13;12.48;;;11.38;;
11935;SDS011;6027;48.576;9.180;2023-07-09T07:50:39;12.25;;;11.30;;
11935;SDS011;6027;48.576;9.180;2023-07-09T07:53:06;12.10;;;11.10;;
11935;SDS011;6027;48.576;9.180;2023-07-09T07:55:36;12.73;;;11.73;;
11935;SDS011;6027;48.576;9.180;2023-07-09T07:58:01;11.68;;;10.88;;
11935;SDS011;6027;48.576;9.180;2023-07-09T08:00:29;12.90;;;11.90;;
11935;SDS011;6027;48.576;9.180;2023-07-09T08:02:55;12.20;;;11.30;;
11935;SDS011;6027;48.576;9.180;2023-07-09T08:05:21;13.80;;;12.80;;
11935;SDS011;6027;48.576;9.180;2023-07-09T08:07:48;13.07;;;12.00;;
11935;SDS011;6027;48.576;9.180;2023-07-09T08:10:23;13.52;;;12.43;;
11935;SDS011;6027;48.576;9.180;2023-07-09T08:12:54;12.45;;;11.65;;
11935;SDS011;6027;48.576;9.180;2023-07-09T08:15:22;12.75;;;11.85;;
11935;SDS011;6027;48.576;9.180;2023-07-09T08:17:49;12.90;;;11.80;;
11935;SDS011;6027;48.576;9.180;2023-07-09T08:20:17;14.52;;;13.43;;
11935;SDS011;6027;48.576;9.180;2023-07-09T08:26:19;12.18;;;11.27;;
11935;SDS011;6027;48.576;9.180;2023-07-09T08:29:51;13.75;;;12.75;;
11935;SDS011;6027;48.576;9.180;2023-07-09T08:36:04;12.43;;;11.23;;
11935;SDS011;6027;48.576;9.180;2023-07-09T08:38:29;12.65;;;11.02;;
11935;SDS011;6027;48.576;9.180;2023-07-09T08:40:59;12.27;;;11.07;;
11935;SDS011;6027;48.576;9.180;2023-07-09T08:48:46;11.18;;;10.27;;
11935;SDS011;6027;48.576;9.180;2023-07-09T08:54:00;10.32;;;9.30;;
11935;SDS011;6027;48.576;9.180;2023-07-09T08:56:27;10.27;;;9.48;;
11935;SDS011;6027;48.576;9.180;2023-07-09T08:58:56;10.13;;;9.38;;
11935;SDS011;6027;48.576;9.180;2023-07-09T09:01:35;10.82;;;10.02;;
11935;SDS011;6027;48.576;9.180;2023-07-09T09:04:10;10.52;;;9.52;;
11935;SDS011;6027;48.576;9.180;2023-07-09T09:06:45;10.48;;;9.77;;
11935;SDS011;6027;48.576;9.180;2023-07-09T09:11:59;9.82;;;9.13;;
11935;SDS011;6027;48.576;9.180;2023-07-09T09:14:43;10.82;;;9.88;;
11935;SDS011;6027;48.576;9.180;2023-07-09T09:17:23;8.40;;;7.80;;
11935;SDS011;6027;48.576;9.180;2023-07-09T09:19:59;9.38;;;8.68;;
11935;SDS011;6027;48.576;9.180;2023-07-09T09:22:48;10.77;;;10.07;;
11935;SDS011;6027;48.576;9.180;2023-07-09T09:25:35;10.02;;;9.32;;
11935;SDS011;6027;48.576;9.180;2023-07-09T09:28:03;9.55;;;8.82;;
11935;SDS011;6027;48.576;9.180;2023-07-09T09:30:29;9.15;;;8.45;;
11935;SDS011;6027;48.576;9.180;2023-07-09T09:33:16;9.45;;;8.65;;
11935;SDS011;6027;48.576;9.180;2023-07-09T09:35:43;8.38;;;7.85;;
11935;SDS011;6027;48.576;9.180;2023-07-09T09:38:10;9.20;;;8.60;;
11935;SDS011;6027;48.576;9.180;2023-07-09T09:40:37;9.02;;;8.38;;
11935;SDS011;6027;48.576;9.180;2023-07-09T09:43:09;8.57;;;7.80;;
11935;SDS011;6027;48.576;9.180;2023-07-09T09:45:39;9.05;;;8.30;;
11935;SDS011;6027;48.576;9.180;2023-07-09T09:48:16;7.97;;;7.35;;
11935;SDS011;6027;48.576;9.180;2023-07-09T09:50:51;9.15;;;8.25;;
11935;SDS011;6027;48.576;9.180;2023-07-09T09:53:23;9.43;;;8.82;;
11935;SDS011;6027;48.576;9.180;2023-07-09T09:55:53;9.13;;;8.15;;
11935;SDS011;6027;48.576;9.180;2023-07-09T09:58:20;8.90;;;8.30;;
11935;SDS011;6027;48.576;9.180;2023-07-09T10:00:52;8.80;;;8.02;;
11935;SDS011;6027;48.576;9.180;2023-07-09T10:03:20;8.80;;;8.10;;
11935;SDS011;6027;48.576;9.180;2023-07-09T10:05:56;9.85;;;9.15;;
11935;SDS011;6027;48.576;9.180;2023-07-09T10:08:29;9.05;;;8.25;;
11935;SDS011;6027;48.576;9.180;2023-07-09T10:11:21;9.15;;;8.43;;
11935;SDS011;6027;48.576;9.180;2023-07-09T10:13:48;8.13;;;7.45;;
11935;SDS011;6027;48.576;9.180;2023-07-09T10:16:21;7.82;;;7.18;;
11935;SDS011;6027;48.576;9.180;2023-07-09T10:19:09;8.32;;;7.63;;
11935;SDS011;6027;48.576;9.180;2023-07-09T10:24:45;7.90;;;7.38;;
11935;SDS011;6027;48.576;9.180;2023-07-09T10:27:16;7.90;;;7.30;;
11935;SDS011;6027;48.576;9.180;2023-07-09T10:33:12;8.45;;;7.80;;
11935;SDS011;6027;48.576;9.180;2023-07-09T10:35:53;9.25;;;8.38;;
11935;SDS011;6027;48.576;9.180;2023-07-09T10:41:44;8.63;;;7.82;;
11935;SDS011;6027;48.576;9.180;2023-07-09T10:46:58;8.50;;;7.93;;
11935;SDS011;6027;48.576;9.180;2023-07-09T10:49:33;9.30;;;8.55;;
11935;SDS011;6027;48.576;9.180;2023-07-09T10:52:20;7.82;;;7.22;;
11935;SDS011;6027;48.576;9.180;2023-07-09T10:54:55;7.70;;;7.20;;
11935;SDS011;6027;48.576;9.180;2023-07-09T11:00:20;8.95;;;8.18;;
11935;SDS011;6027;48.576;9.180;2023-07-09T11:02:50;8.85;;;8.15;;
11935;SDS011;6027;48.576;9.180;2023-07-09T11:05:25;8.38;;;7.57;;
11935;SDS011;6027;48.576;9.180;2023-07-09T11:10:41;9.15;;;8.38;;
11935;SDS011;6027;48.576;9.180;2023-07-09T11:13:15;7.60;;;7.07;;
11935;SDS011;6027;48.576;9.180;2023-07-09T11:15:49;8.00;;;7.40;;
11935;SDS011;6027;48.576;9.180;2023-07-09T11:18:23;9.23;;;8.35;;
11935;SDS011;6027;48.576;9.180;2023-07-09T11:21:01;8.73;;;6.93;;
11935;SDS011;6027;48.576;9.180;2023-07-09T11:23:39;8.50;;;7.90;;
11935;SDS011;6027;48.576;9.180;2023-07-09T11:26:12;8.55;;;7.75;;
11935;SDS011;6027;48.576;9.180;2023-07-09T11:28:47;8.93;;;8.23;;
11935;SDS011;6027;48.576;9.180;2023-07-09T11:33:49;9.02;;;8.25;;
11935;SDS011;6027;48.576;9.180;2023-07-09T11:36:27;7.68;;;7.18;;
11935;SDS011;6027;48.576;9.180;2023-07-09T11:38:54;8.52;;;7.90;;
11935;SDS011;6027;48.576;9.180;2023-07-09T11:44:20;7.95;;;7.35;;
11935;SDS011;6027;48.576;9.180;2023-07-09T11:49:21;7.80;;;7.20;;
11935;SDS011;6027;48.576;9.180;2023-07-09T11:51:52;7.95;;;7.35;;
11935;SDS011;6027;48.576;9.180;2023-07-09T11:54:22;7.82;;;7.22;;
11935;SDS011;6027;48.576;9.180;2023-07-09T11:56:58;8.65;;;6.85;;
11935;SDS011;6027;48.576;9.180;2023-07-09T11:59:26;8.48;;;7.78;;
11935;SDS011;6027;48.576;9.180;2023-07-09T12:01:52;7.40;;;6.70;;
11935;SDS011;6027;48.576;9.180;2023-07-09T12:04:21;8.65;;;7.95;;
11935;SDS011;6027;48.576;9.180;2023-07-09T12:06:48;8.70;;;7.90;;
11935;SDS011;6027;48.576;9.180;2023-07-09T12:09:18;7.63;;;6.93;;
11935;SDS011;6027;48.576;9.180;2023-07-09T12:11:46;8.15;;;7.50;;
11935;SDS011;6027;48.576;9.180;2023-07-09T12:14:18;7.45;;;6.85;;
11935;SDS011;6027;48.576;9.180;2023-07-09T12:16:48;7.57;;;6.85;;
11935;SDS011;6027;48.576;9.180;2023-07-09T12:19:16;8.05;;;7.35;;
11935;SDS011;6027;48.576;9.180;2023-07-09T12:21:44;7.88;;;7.28;;
11935;SDS011;6027;48.576;9.180;2023-07-09T12:24:27;7.60;;;7.00;;
11935;SDS011;6027;48.576;9.180;2023-07-09T12:27:00;7.90;;;6.82;;
11935;SDS011;6027;48.576;9.180;2023-07-09T12:29:30;7.75;;;7.05;;
11935;SDS011;6027;48.576;9.180;2023-07-09T12:32:02;7.05;;;6.45;;
11935;SDS011;6027;48.576;9.180;2023-07-09T12:34:34;7.45;;;6.88;;
11935;SDS011;6027;48.576;9.180;2023-07-09T12:37:00;7.85;;;7.10;;
11935;SDS011;6027;48.576;9.180;2023-07-09T12:39:26;7.65;;;7.13;;
11935;SDS011;6027;48.576;9.180;2023-07-09T12:41:54;6.93;;;6.22;;
11935;SDS011;6027;48.576;9.180;2023-07-09T12:44:23;7.75;;;7.05;;
11935;SDS011;6027;48.576;9.180;2023-07-09T12:46:50;7.55;;;6.43;;
11935;SDS011;6027;48.576;9.180;2023-07-09T12:49:27;9.45;;;7.00;;
11935;SDS011;6027;48.576;9.180;2023-07-09T12:51:56;7.90;;;7.18;;
11935;SDS011;6027;48.576;9.180;2023-07-09T12:54:22;7.47;;;6.88;;
11935;SDS011;6027;48.576;9.180;2023-07-09T12:56:52;6.93;;;6.22;;
11935;SDS011;6027;48.576;9.180;2023-07-09T12:59:23;6.70;;;6.10;;
11935;SDS011;6027;48.576;9.180;2023-07-09T13:01:54;8.43;;;7.35;;
11935;SDS011;6027;48.576;9.180;2023-07-09T13:04:31;8.93;;;7.07;;
11935;SDS011;6027;48.576;9.180;2023-07-09T13:07:02;8.35;;;7.55;;
11935;SDS011;6027;48.576;9.180;2023-07-09T13:09:29;8.20;;;6.80;;
11935;SDS011;6027;48.576;9.180;2023-07-09T13:11:55;7.50;;;6.80;;
11935;SDS011;6027;48.576;9.180;2023-07-09T13:14:22;7.68;;;6.88;;
11935;SDS011;6027;48.576;9.180;2023-07-09T13:16:51;7.00;;;6.40;;
11935;SDS011;6027;48.576;9.180;2023-07-09T13:19:17;7.32;;;6.20;;
11935;SDS011;6027;48.576;9.180;2023-07-09T13:21:43;7.38;;;6.70;;
11935;SDS011;6027;48.576;9.180;2023-07-09T13:24:28;8.20;;;7.25;;
11935;SDS011;6027;48.576;9.180;2023-07-09T13:26:55;10.10;;;6.30;;
11935;SDS011;6027;48.576;9.180;2023-07-09T13:29:24;7.47;;;6.88;;
11935;SDS011;6027;48.576;9.180;2023-07-09T13:31:50;7.65;;;7.00;;
11935;SDS011;6027;48.576;9.180;2023-07-09T13:34:29;8.25;;;6.65;;
11935;SDS011;6027;48.576;9.180;2023-07-09T13:37:00;7.60;;;6.82;;
11935;SDS011;6027;48.576;9.180;2023-07-09T13:39:26;6.55;;;6.05;;
11935;SDS011;6027;48.576;9.180;2023-07-09T13:41:51;7.45;;;6.68;;
11935;SDS011;6027;48.576;9.180;2023-07-09T13:44:22;7.10;;;6.40;;
11935;SDS011;6027;48.576;9.180;2023-07-09T13:46:53;7.20;;;6.60;;
11935;SDS011;6027;48.576;9.180;2023-07-09T13:49:20;8.77;;;7.25;;
11935;SDS011;6027;48.576;9.180;2023-07-09T13:51:48;6.97;;;6.47;;
11935;SDS011;6027;48.576;9.180;2023-07-09T13:54:25;7.22;;;6.03;;
11935;SDS011;6027;48.576;9.180;2023-07-09T13:56:57;7.43;;;6.32;;
11935;SDS011;6027;48.576;9.180;2023-07-09T13:59:23;7.43;;;6.70;;
11935;SDS011;6027;48.576;9.180;2023-07-09T14:01:50;6.40;;;5.80;;
11935;SDS011;6027;48.576;9.180;2023-07-09T14:04:18;7.15;;;6.55;;
11935;SDS011;6027;48.576;9.180;2023-07-09T14:06:44;6.40;;;5.80;;
11935;SDS011;6027;48.576;9.180;2023-07-09T14:09:14;6.57;;;6.00;;
11935;SDS011;6027;48.576;9.180;2023-07-09T14:11:44;6.68;;;6.13;;
11935;SDS011;6027;48.576;9.180;2023-07-09T14:14:19;6.22;;;5.78;;
11935;SDS011;6027;48.576;9.180;2023-07-09T14:16:48;7.18;;;6.40;;
11935;SDS011;6027;48.576;9.180;2023-07-09T14:19:16;6.85;;;5.82;;
11935;SDS011;6027;48.576;9.180;2023-07-09T14:21:43;7.20;;;6.60;;
11935;SDS011;6027;48.576;9.180;2023-07-09T14:24:28;6.15;;;5.65;;
11935;SDS011;6027;48.576;9.180;2023-07-09T14:26:57;6.38;;;5.88;;
11935;SDS011;6027;48.576;9.180;2023-07-09T14:29:24;6.90;;;6.25;;
11935;SDS011;6027;48.576;9.180;2023-07-09T14:31:51;6.93;;;6.22;;
11935;SDS011;6027;48.576;9.180;2023-07-09T14:36:55;6.65;;;6.15;;
11935;SDS011;6027;48.576;9.180;2023-07-09T14:39:22;5.80;;;5.40;;
11935;SDS011;6027;48.576;9.180;2023-07-09T14:41:49;8.20;;;6.22;;
11935;SDS011;6027;48.576;9.180;2023-07-09T14:44:18;6.70;;;6.10;;
11935;SDS011;6027;48.576;9.180;2023-07-09T14:46:50;9.05;;;6.30;;
11935;SDS011;6027;48.576;9.180;2023-07-09T14:49:17;7.03;;;6.43;;
11935;SDS011;6027;48.576;9.180;2023-07-09T14:51:43;6.47;;;5.97;;
11935;SDS011;6027;48.576;9.180;2023-07-09T14:56:54;7.25;;;6.60;;
11935;SDS011;6027;48.576;9.180;2023-07-09T14:59:22;6.97;;;6.38;;
11935;SDS011;6027;48.576;9.180;2023-07-09T15:01:47;7.60;;;5.85;;
11935;SDS011;6027;48.576;9.180;2023-07-09T15:04:32;7.95;;;6.32;;
11935;SDS011;6027;48.576;9.180;2023-07-09T15:06:58;6.43;;;5.93;;
11935;SDS011;6027;48.576;9.180;2023-07-09T15:09:25;5.85;;;5.35;;
11935;SDS011;6027;48.576;9.180;2023-07-09T15:11:53;6.68;;;6.07;;
11935;SDS011;6027;48.576;9.180;2023-07-09T15:14:39;6.90;;;6.40;;
11935;SDS011;6027;48.576;9.180;2023-07-09T15:17:04;6.38;;;5.88;;
11935;SDS011;6027;48.576;9.180;2023-07-09T15:19:30;7.00;;;6.40;;
11935;SDS011;6027;48.576;9.180;2023-07-09T15:21:56;6.45;;;5.85;;
11935;SDS011;6027;48.576;9.180;2023-07-09T15:24:25;6.32;;;5.72;;
11935;SDS011;6027;48.576;9.180;2023-07-09T15:27:01;6.95;;;6.35;;
11935;SDS011;6027;48.576;9.180;2023-07-09T15:29:27;7.35;;;6.85;;
11935;SDS011;6027;48.576;9.180;2023-07-09T15:31:53;6.75;;;6.15;;
11935;SDS011;6027;48.576;9.180;2023-07-09T15:34:19;6.85;;;6.25;;
11935;SDS011;6027;48.576;9.180;2023-07-09T15:36:46;6.63;;;5.80;;
11935;SDS011;6027;48.576;9.180;2023-07-09T15:39:14;6.55;;;5.93;;
11935;SDS011;6027;48.576;9.180;2023-07-09T15:41:40;6.75;;;5.93;;
11935;SDS011;6027;48.576;9.180;2023-07-09T15:44:08;6.93;;;6.38;;
11935;SDS011;6027;48.576;9.180;2023-07-09T15:46:35;7.40;;;6.25;;
11935;SDS011;6027;48.576;9.180;2023-07-09T15:49:01;6.60;;;5.80;;
11935;SDS011;6027;48.576;9.180;2023-07-09T15:51:29;6.82;;;6.22;;
11935;SDS011;6027;48.576;9.180;2023-07-09T15:53:55;6.85;;;6.25;;
11935;SDS011;6027;48.576;9.180;2023-07-09T15:56:25;7.15;;;6.45;;
11935;SDS011;6027;48.576;9.180;2023-07-09T15:58:54;6.82;;;6.32;;
11935;SDS011;6027;48.576;9.180;2023-07-09T16:01:21;5.72;;;5.30;;
11935;SDS011;6027;48.576;9.180;2023-07-09T16:03:52;7.13;;;6.50;;
11935;SDS011;6027;48.576;9.180;2023-07-09T16:06:23;7.38;;;6.68;;
11935;SDS011;6027;48.576;9.180;2023-07-09T16:08:49;6.60;;;6.00;;